Flight Track Log - Related Links

Times and Time Zones

All times are in EDT time to prevent confusion due to time zone crossing. See the AAY843 flight status page for this flight to view local times or setup timezone preferences in your user account.

Time Position Orientation Groundspeed Altitude Reporting Facility
EDT Latitude Longitude Course Direction KTS MPH feet Rate Location/Type
Mon 06:56:14 PM 43.1267 -76.1217 315° West 160 184 1,200  Level Boston Center
Mon 06:56:32 PM 43.1353 -76.1333 315° West 159 183 2,000 2,250 Climbing Boston Center
Mon 06:57:34 PM 43.1253 -76.2178 261° West 272 313 4,200 1,960 Climbing Boston Center
Mon 06:58:13 PM 43.0944 -76.2597 225° Southwest 261 300 5,300 2,412 Climbing Boston Center
Mon 06:59:16 PM 43.0331 -76.3375 223° Southwest 293 337 8,300 2,274 Climbing Boston Center
Mon 07:00:17 PM 42.9558 -76.3964 209° Southwest 311 358 10,000 942 Climbing Boston Center
Mon 07:01:17 PM 42.8778 -76.4564 209° Southwest 317 365 10,200 871 Climbing Boston Center
Mon 07:02:21 PM 42.7742 -76.5253 206° Southwest 380 437 11,800 2,064 Climbing Boston Center
Mon 07:03:22 PM 42.6656 -76.5722 198° South 405 466 14,500 2,508 Climbing Boston Center
Mon 07:04:23 PM 42.5500 -76.5911 187° South 414 476 16,900 2,083 Climbing Boston Center
Mon 07:05:23 PM 42.4317 -76.6075 186° South 419 482 18,700 1,785 Climbing Boston Center
Mon 07:06:24 PM 42.3092 -76.6253 186° South 434 499 20,500 1,597 Climbing Boston Center
Mon 07:07:27 PM 42.1631 -76.6517 188° South 452 520 22,000 1,512 Climbing New York Center
Mon 07:08:27 PM 42.0225 -76.6725 186° South 458 527 23,600 1,550 Climbing New York Center
Mon 07:09:27 PM 41.8903 -76.6942 187° South 474 545 25,100 1,550 Climbing New York Center
Mon 07:10:27 PM 41.7603 -76.7106 185° South 474 545 26,700 1,500 Climbing New York Center
Mon 07:11:27 PM 41.6281 -76.7319 187° South 480 552 28,100 1,450 Climbing New York Center
Mon 07:12:27 PM 41.4936 -76.7533 187° South 485 558 29,600 1,150 Climbing New York Center
Mon 07:13:27 PM 41.3758 -76.7733 187° South 485 558 30,400 1,050 Climbing New York Center
Mon 07:14:27 PM 41.2453 -76.8031 190° South 485 558 31,700 857 Climbing New York Center
Mon 07:15:26 PM 41.1183 -76.8414 193° South 480 552 32,100 151 Climbing New York Center
Mon 07:16:26 PM 40.9933 -76.8797 193° South 475 547 32,000 -50 Descending New York Center
Mon 07:17:26 PM 40.8719 -76.9319 198° South 475 547 32,000  Level New York Center
Mon 07:18:26 PM 40.7481 -76.9867 199° South 470 541 32,000  Level New York Center
Mon 07:19:26 PM 40.6114 -77.0508 200° South 475 547 32,000  Level New York Center
Mon 07:20:26 PM 40.4875 -77.1050 198° South 475 547 32,000  Level New York Center
Mon 07:21:26 PM 40.3642 -77.1536 197° South 475 547 32,000  Level New York Center
Mon 07:22:27 PM 40.2403 -77.2075 198° South 475 547 32,000  Level New York Center
Mon 07:23:26 PM 40.1419 -77.2528 199° South 475 547 32,000  Level New York Center
Mon 07:24:26 PM 39.9983 -77.3206 200° South 469 540 32,000  Level New York Center
Mon 07:26:39 PM 39.7247 -77.4342 198° South 470 541 32,000  Level Washington Center
Mon 07:27:39 PM 39.6008 -77.4875 198° South 470 541 32,000 49 Level Washington Center
Mon 07:28:41 PM 39.4769 -77.5408 198° South 470 541 32,100 500 Climbing Washington Center
Mon 07:29:39 PM 39.3553 -77.5939 199° South 470 541 33,000 454 Climbing Washington Center
Mon 07:30:40 PM 39.2356 -77.6442 198° South 470 541 33,000  Level Washington Center
Mon 07:31:40 PM 39.1117 -77.6969 198° South 470 541 33,000  Level Washington Center
Mon 07:32:41 PM 38.9919 -77.7469 198° South 470 541 33,000  Level Washington Center
Mon 07:33:39 PM 38.8808 -77.7889 196° South 464 534 33,000  Level Washington Center
Mon 07:34:39 PM 38.7472 -77.7983 183° South 469 540 33,000  Level Washington Center
Mon 07:35:40 PM 38.6200 -77.7944 179° South 469 540 33,000 393 Level Washington Center
Mon 07:36:41 PM 38.4908 -77.7958 180° South 469 540 33,800 496 Climbing Washington Center
Mon 07:37:41 PM 38.3689 -77.8428 197° South 463 533 34,000 102 Climbing Washington Center
Mon 07:38:39 PM 38.2736 -77.9322 216° Southwest 433 498 34,000  Level Washington Center
Mon 07:39:40 PM 38.1819 -78.0325 221° Southwest 433 498 34,000  Level Washington Center
Mon 07:40:41 PM 38.0903 -78.1272 219° Southwest 433 498 34,000  Level Washington Center
Mon 07:41:41 PM 37.9858 -78.2239 216° Southwest 433 498 34,000  Level Washington Center
Mon 07:42:39 PM 37.8881 -78.3097 215° Southwest 428 493 34,000  Level Washington Center
Mon 07:43:39 PM 37.7922 -78.4008 217° Southwest 436 502 34,000  Level Washington Center
Mon 07:44:40 PM 37.6961 -78.4892 216° Southwest 436 502 34,000  Level Washington Center
Mon 07:45:41 PM 37.6128 -78.5675 217° Southwest 436 502 34,000  Level Washington Center
Mon 07:46:39 PM 37.5147 -78.6553 215° Southwest 441 507 34,000  Level Washington Center
Mon 07:47:40 PM 37.4164 -78.7428 215° Southwest 441 507 34,000  Level Washington Center
Mon 07:48:40 PM 37.3203 -78.8303 216° Southwest 441 507 34,000  Level Washington Center
Mon 07:49:40 PM 37.2261 -78.9200 217° Southwest 441 507 34,000  Level Washington Center
Mon 07:50:41 PM 37.1211 -79.0172 216° Southwest 441 507 34,000  Level Washington Center
Mon 07:51:39 PM 37.0206 -79.1036 214° Southwest 441 507 34,000  Level Washington Center
Mon 07:52:41 PM 36.9261 -79.1903 216° Southwest 441 507 34,000  Level Washington Center
Mon 07:54:37 PM 36.7367 -79.3606 216° Southwest 455 524 34,000  Level Atlanta Center
Mon 07:55:37 PM 36.6397 -79.4467 215° Southwest 441 507 34,000  Level Atlanta Center
Mon 07:56:37 PM 36.5550 -79.5239 216° Southwest 429 494 34,000  Level Atlanta Center
Mon 07:57:37 PM 36.4558 -79.6094 215° Southwest 429 494 34,000  Level Atlanta Center
Mon 07:58:37 PM 36.3589 -79.6947 215° Southwest 434 499 34,000  Level Atlanta Center
Mon 07:59:37 PM 36.2658 -79.7794 216° Southwest 434 499 34,000  Level Atlanta Center
Mon 08:00:37 PM 36.1564 -79.8728 215° Southwest 434 499 34,000  Level Atlanta Center
Mon 08:01:37 PM 36.0594 -79.9600 216° Southwest 434 499 34,000  Level Atlanta Center
Mon 08:02:37 PM 35.9528 -80.0217 205° Southwest 434 499 34,000  Level Atlanta Center
Mon 08:03:37 PM 35.8381 -80.0811 203° Southwest 434 499 34,000  Level Atlanta Center
Mon 08:04:37 PM 35.7372 -80.1269 200° South 440 506 34,000  Level Atlanta Center
Mon 08:05:37 PM 35.6161 -80.1917 203° Southwest 440 506 34,000  Level Atlanta Center
Mon 08:06:37 PM 35.5033 -80.2503 203° Southwest 440 506 34,000  Level Atlanta Center
Mon 08:07:37 PM 35.3925 -80.3064 202° Southwest 440 506 34,000  Level Atlanta Center
Mon 08:08:37 PM 35.2794 -80.3625 202° Southwest 440 506 34,000  Level Atlanta Center
Mon 08:10:11 PM 35.1142 -80.4414 201° Southwest 433 498 34,000  Level Jacksonville Center
Mon 08:11:11 PM 35.0047 -80.4978 203° Southwest 433 498 34,000  Level Jacksonville Center
Mon 08:12:11 PM 34.8933 -80.5539 202° Southwest 433 498 34,000  Level Jacksonville Center
Mon 08:13:11 PM 34.7733 -80.6128 202° Southwest 433 498 34,000  Level Jacksonville Center
Mon 08:14:11 PM 34.6617 -80.6689 202° Southwest 433 498 34,000  Level Jacksonville Center
Mon 08:15:11 PM 34.5583 -80.7194 202° Southwest 440 506 34,000  Level Jacksonville Center
Mon 08:16:11 PM 34.4447 -80.7778 203° Southwest 440 506 34,000  Level Jacksonville Center
Mon 08:17:11 PM 34.3350 -80.8306 202° Southwest 446 513 34,000  Level Jacksonville Center
Mon 08:18:11 PM 34.2314 -80.8808 202° Southwest 424 488 34,000  Level Jacksonville Center
Mon 08:19:11 PM 34.1194 -80.9311 200° South 424 488 34,000  Level Jacksonville Center
Mon 08:20:11 PM 34.0078 -80.9836 201° Southwest 429 494 34,000  Level Jacksonville Center
Mon 08:21:11 PM 33.9000 -81.0336 201° Southwest 429 494 34,000  Level Jacksonville Center
Mon 08:22:11 PM 33.7900 -81.0883 202° Southwest 429 494 34,000  Level Jacksonville Center
Mon 08:23:11 PM 33.6803 -81.1431 203° Southwest 429 494 34,000  Level Jacksonville Center
Mon 08:24:11 PM 33.5683 -81.1975 202° Southwest 435 501 34,000  Level Jacksonville Center
Mon 08:25:11 PM 33.4583 -81.2519 202° Southwest 435 501 34,000  Level Jacksonville Center
Mon 08:26:11 PM 33.3464 -81.3061 202° Southwest 435 501 34,000  Level Jacksonville Center
Mon 08:27:11 PM 33.2386 -81.3603 203° Southwest 435 501 34,000  Level Jacksonville Center
Mon 08:28:11 PM 33.1244 -81.4167 202° Southwest 435 501 34,000  Level Jacksonville Center
Mon 08:29:11 PM 33.0167 -81.4706 203° Southwest 435 501 34,000  Level Jacksonville Center
Mon 08:30:11 PM 32.9044 -81.5244 202° Southwest 435 501 34,000  Level Jacksonville Center
Mon 08:31:11 PM 32.7944 -81.5778 202° Southwest 430 495 34,000  Level Jacksonville Center
Mon 08:32:11 PM 32.6739 -81.6389 203° Southwest 430 495 34,000  Level Jacksonville Center
Mon 08:33:11 PM 32.5719 -81.6772 198° South 425 489 34,000  Level Jacksonville Center
Mon 08:34:10 PM 32.4408 -81.7061 191° South 438 504 34,000  Level Jacksonville Center
Mon 08:35:11 PM 32.3325 -81.7297 190° South 438 504 34,000  Level Jacksonville Center
Mon 08:36:11 PM 32.2033 -81.7583 191° South 438 504 34,000  Level Jacksonville Center
Mon 08:37:11 PM 32.0844 -81.7917 193° South 443 510 34,000  Level Jacksonville Center
Mon 08:38:11 PM 31.9783 -81.8175 192° South 443 510 34,000  Level Jacksonville Center
Mon 08:39:11 PM 31.8469 -81.8458 190° South 449 517 34,000  Level Jacksonville Center
Mon 08:40:11 PM 31.7364 -81.8692 190° South 449 517 34,000  Level Jacksonville Center
Mon 08:41:11 PM 31.6053 -81.8997 191° South 449 517 34,000  Level Jacksonville Center
Mon 08:42:11 PM 31.4864 -81.9303 192° South 449 517 34,000  Level Jacksonville Center
Mon 08:43:11 PM 31.3758 -81.9558 191° South 449 517 34,000  Level Jacksonville Center
Mon 08:44:11 PM 31.2425 -81.9861 191° South 449 517 34,000  Level Jacksonville Center
Mon 08:45:11 PM 31.1236 -82.0142 191° South 449 517 34,000  Level Jacksonville Center
Mon 08:46:11 PM 30.9986 -82.0394 190° South 449 517 34,000  Level Jacksonville Center
Mon 08:47:11 PM 30.8778 -82.0697 192° South 449 517 34,000  Level Jacksonville Center
Mon 08:48:11 PM 30.7567 -82.0997 192° South 449 517 34,000  Level Jacksonville Center
Mon 08:49:11 PM 30.6339 -82.1247 190° South 449 517 34,000  Level Jacksonville Center
Mon 08:50:11 PM 30.5253 -82.1450 189° South 449 517 34,000  Level Jacksonville Center
Mon 08:51:11 PM 30.4044 -82.1747 192° South 443 510 34,000  Level Jacksonville Center
Mon 08:52:11 PM 30.2814 -82.1997 190° South 448 516 34,000  Level Jacksonville Center
Mon 08:53:11 PM 30.1583 -82.2294 192° South 448 516 34,000  Level Jacksonville Center
Mon 08:54:11 PM 30.0372 -82.2567 191° South 448 516 34,000 -1,100 Level Jacksonville Center
Mon 08:56:11 PM 29.7892 -82.3158 192° South 449 517 30,700 -1,800 Descending Jacksonville Center
Mon 08:57:11 PM 29.6744 -82.3381 190° South 444 511 28,600 -2,000 Descending Jacksonville Center
Mon 08:58:11 PM 29.5575 -82.3553 187° South 433 498 26,700 -1,600 Descending Jacksonville Center
Mon 08:59:11 PM 29.4406 -82.3442 175° South 422 486 25,400 -850 Descending Jacksonville Center
Mon 09:00:11 PM 29.3300 -82.3281 173° South 416 479 25,000 -857 Descending Jacksonville Center
Mon 09:01:10 PM 29.2131 -82.3097 172° South 421 484 23,700 -2,100 Descending Jacksonville Center
Mon 09:02:11 PM 29.0961 -82.3008 176° South 426 490 20,800 -3,025 Descending Jacksonville Center
Mon 09:03:11 PM 28.9833 -82.2897 175° South 416 479 17,600 -2,463 Descending Jacksonville Center
Mon 09:05:21 PM 28.7333 -82.2667 175° South 361 415 13,000 -2,053 Descending Tampa TRACON
Mon 09:06:21 PM 28.6500 -82.2500 170° South 348 400 11,100 -1,450 Descending Tampa TRACON
Mon 09:07:21 PM 28.5667 -82.3000 208° Southwest 340 391 10,100 -545 Descending Tampa TRACON
Mon 09:08:22 PM 28.5000 -82.3833 228° Southwest 334 384 10,000 -50 Descending Tampa TRACON
Mon 09:09:22 PM 28.4500 -82.4667 236° Southwest 337 388 10,000 -48 Level Tampa TRACON
Mon 09:10:27 PM 28.3833 -82.5500 228° Southwest 319 367 9,900 -624 Descending Tampa TRACON
Mon 09:11:27 PM 28.3167 -82.6167 221° Southwest 278 320 8,700 -1,438 Descending Tampa TRACON
Mon 09:12:28 PM 28.2667 -82.6833 230° Southwest 282 325 7,000 -1,617 Descending Tampa TRACON
Mon 09:13:22 PM 28.2000 -82.7167 204° Southwest 280 322 5,600 -1,526 Descending Tampa TRACON
Mon 09:14:22 PM 28.1333 -82.7667 213° Southwest 273 314 4,100 -1,400 Descending Tampa TRACON
Mon 09:15:22 PM 28.0667 -82.7833 192° South 262 302 2,800 -714 Descending Tampa TRACON
Mon 09:16:28 PM 28.0000 -82.7667 168° South 254 292 2,600 -150 Descending Tampa TRACON
Mon 09:17:22 PM 27.9333 -82.7667 180° South 203 234 2,500 -300 Descending Tampa TRACON
Mon 09:18:28 PM 27.8833 -82.7667 180° South 205 236 2,000 -476 Descending Tampa TRACON
Mon 09:19:28 PM 27.8333 -82.7333 149° Southeast 177 204 1,500 -400 Descending Tampa TRACON
Mon 09:20:28 PM 27.8333 -82.6833 90° East 172 198 1,200 -500 Descending Tampa TRACON
Mon 09:21:28 PM 27.8833 -82.6833 360° North 143 165 500 -700 Descending Tampa TRACON
Mon 09:23:00 PM 27.9000 -82.6833 310° West  Level FlightAware Approximate

Login

Don't have an account? Register now (free) for customized features, flight alerts, and more!